Time;durP1;ratioP1;P1;durP2;ratioP2;P2;SDS_P1;SDS_P2;PMS_P1;PMS_P2;Temp;Humidity;BMP_temperature;BMP_pressure;BME280_temperature;BME280_humidity;BME280_pressure;Samples;Min_cycle;Max_cycle;Signal;HPM_P1;HPM_P2
2023/10/03 00:01:04;;;;;;;20.83;10.32;;;;;;;16.35;75.65;98737.03;5005937;28;20061;-82
2023/10/03 00:03:32;;;;;;;21.15;9.88;;;;;;;16.21;75.59;98728.84;4991044;28;20461;-82
2023/10/03 00:05:57;;;;;;;21.80;10.68;;;;;;;16.34;75.82;98719.25;5012680;28;20030;-82
2023/10/03 00:08:23;;;;;;;16.27;9.40;;;;;;;16.29;75.87;98713.97;5008414;28;20706;-82
2023/10/03 00:10:49;;;;;;;21.20;10.20;;;;;;;16.05;75.78;98708.59;5005073;28;20576;-82
2023/10/03 00:13:17;;;;;;;20.05;9.98;;;;;;;16.18;75.73;98707.09;5006589;28;20399;-82
2023/10/03 00:15:45;;;;;;;25.85;11.35;;;;;;;16.21;76.14;98704.63;5010097;28;20030;-82
2023/10/03 00:18:14;;;;;;;22.98;10.80;;;;;;;16.12;76.13;98690.19;4993155;28;20482;-82
2023/10/03 00:20:40;;;;;;;22.30;10.20;;;;;;;16.20;75.93;98705.72;5012139;28;20025;-82
2023/10/03 00:23:06;;;;;;;19.33;10.45;;;;;;;15.90;75.90;98681.81;5011685;28;20068;-82
2023/10/03 00:25:31;;;;;;;20.02;9.57;;;;;;;16.13;76.16;98704.44;5008280;28;20033;-82
2023/10/03 00:28:01;;;;;;;18.58;10.07;;;;;;;16.22;75.70;98706.22;4994284;28;20121;-82
2023/10/03 00:30:28;;;;;;;21.02;9.88;;;;;;;15.98;76.38;98689.28;5007299;28;20041;-82
2023/10/03 00:32:57;;;;;;;18.80;9.88;;;;;;;15.93;76.45;98664.31;5011525;28;20113;-82
2023/10/03 00:35:24;;;;;;;28.02;10.63;;;;;;;16.06;75.99;98672.50;4994390;28;20084;-82
2023/10/03 00:37:51;;;;;;;17.27;10.60;;;;;;;15.97;76.15;98659.94;5011349;28;20025;-82
2023/10/03 00:42:48;;;;;;;22.92;10.95;;;;;;;15.86;75.96;98645.03;5005033;28;20035;-82
2023/10/03 00:45:21;;;;;;;18.67;10.48;;;;;;;15.89;76.00;98650.63;5009806;28;20096;-82
2023/10/03 00:47:54;;;;;;;20.95;10.30;;;;;;;15.66;76.61;98638.75;4976299;28;20058;-82
2023/10/03 00:50:23;;;;;;;21.58;10.55;;;;;;;15.57;77.25;98635.09;5012088;28;20038;-82
2023/10/03 00:52:57;;;;;;;18.30;9.75;;;;;;;15.96;75.61;98640.31;4990033;28;20027;-82
2023/10/03 00:55:28;;;;;;;21.48;10.00;;;;;;;15.99;75.88;98639.72;5009542;28;20058;-82
2023/10/03 00:58:07;;;;;;;19.70;10.68;;;;;;;15.94;76.35;98639.00;5008372;28;20143;-82
2023/10/03 01:00:41;;;;;;;22.15;11.07;;;;;;;15.73;76.70;98620.41;5011434;28;20112;-82
2023/10/03 01:03:23;;;;;;;20.35;10.50;;;;;;;16.00;75.91;98619.81;5004615;28;20100;-82
2023/10/03 01:05:49;;;;;;;20.92;11.25;;;;;;;15.84;75.64;98610.31;5011257;28;20057;-82
2023/10/03 01:08:14;;;;;;;22.55;11.13;;;;;;;15.96;75.87;98624.16;5007448;28;20041;-82
2023/10/03 01:10:40;;;;;;;20.70;10.60;;;;;;;15.77;75.96;98603.69;5003337;28;20485;-82
2023/10/03 01:13:11;;;;;;;21.83;10.52;;;;;;;15.68;76.21;98600.84;5008842;28;20026;-82
2023/10/03 01:15:36;;;;;;;21.00;10.77;;;;;;;15.68;76.17;98603.53;4993776;28;20048;-82
2023/10/03 01:18:03;;;;;;;24.60;11.68;;;;;;;15.80;75.96;98609.28;5007915;28;20036;-82
2023/10/03 01:20:40;;;;;;;20.92;10.30;;;;;;;15.67;75.75;98580.38;5007184;28;20057;-81
2023/10/03 01:23:10;;;;;;;21.15;10.18;;;;;;;15.70;76.17;98591.34;4993295;28;20030;-81
2023/10/03 01:25:42;;;;;;;18.08;9.80;;;;;;;15.71;75.75;98584.09;5009919;28;20040;-82
2023/10/03 01:28:08;;;;;;;21.08;11.13;;;;;;;15.67;75.79;98583.88;5010697;28;20448;-82
2023/10/03 01:30:33;;;;;;;18.58;9.85;;;;;;;15.66;75.80;98586.88;4992148;28;20109;-81
2023/10/03 01:33:01;;;;;;;21.60;10.50;;;;;;;15.57;75.79;98575.91;4988692;28;20165;-82
2023/10/03 01:35:26;;;;;;;20.20;11.10;;;;;;;15.57;76.40;98583.19;4970786;28;20026;-82
2023/10/03 01:37:52;;;;;;;21.17;10.13;;;;;;;15.52;76.56;98564.41;4989058;28;20397;-81
2023/10/03 01:40:17;;;;;;;18.35;10.48;;;;;;;15.73;76.02;98568.47;4993779;28;20388;-81
2023/10/03 01:42:47;;;;;;;22.10;10.63;;;;;;;15.75;75.39;98560.91;4976831;28;20054;-81
2023/10/03 01:45:17;;;;;;;21.20;10.65;;;;;;;15.48;75.55;98531.94;5010483;28;20034;-81
2023/10/03 01:47:49;;;;;;;23.05;11.48;;;;;;;15.40;75.96;98553.22;5004098;28;20096;-81
2023/10/03 01:50:17;;;;;;;22.20;10.02;;;;;;;15.30;75.97;98535.31;5002908;28;20037;-81
2023/10/03 01:52:43;;;;;;;22.98;10.55;;;;;;;15.51;76.49;98557.44;5001790;28;20115;-82
2023/10/03 01:55:12;;;;;;;25.42;10.68;;;;;;;15.55;75.70;98543.13;5007217;28;20091;-81
2023/10/03 01:57:37;;;;;;;22.35;11.80;;;;;;;15.50;76.51;98539.69;4990425;28;20077;-81
2023/10/03 02:02:48;;;;;;;20.98;9.68;;;;;;;15.44;75.71;98530.09;5007070;28;20045;-81
2023/10/03 02:05:15;;;;;;;19.33;9.63;;;;;;;15.39;76.67;98540.88;4989137;28;20038;-81
2023/10/03 02:07:41;;;;;;;20.55;10.65;;;;;;;15.20;76.56;98511.22;5009996;28;20425;-81
2023/10/03 02:10:07;;;;;;;26.33;11.27;;;;;;;15.30;76.29;98513.81;5011947;28;20044;-81
2023/10/03 02:12:33;;;;;;;23.40;12.05;;;;;;;15.42;76.02;98538.41;5008489;28;20022;-81
2023/10/03 02:15:00;;;;;;;20.23;10.73;;;;;;;15.26;77.15;98525.44;4988184;28;20037;-82
2023/10/03 02:17:28;;;;;;;23.05;12.60;;;;;;;15.11;78.10;98522.91;5002579;28;20037;-81
2023/10/03 02:19:53;;;;;;;24.85;12.75;;;;;;;14.84;77.78;98508.13;4992867;28;20034;-82
2023/10/03 02:22:19;;;;;;;18.88;10.55;;;;;;;14.99;77.79;98507.16;4998369;28;20052;-82
2023/10/03 02:24:45;;;;;;;22.38;10.70;;;;;;;15.50;75.55;98496.66;5012805;28;20030;-82
2023/10/03 02:27:10;;;;;;;23.05;11.60;;;;;;;15.58;75.10;98510.25;4994499;28;20022;-82
2023/10/03 02:29:38;;;;;;;23.80;11.40;;;;;;;15.16;76.16;98482.53;5011529;28;20060;-82
2023/10/03 02:32:07;;;;;;;25.05;11.50;;;;;;;15.04;76.13;98491.00;5010621;28;20462;-82
2023/10/03 02:34:33;;;;;;;22.67;10.45;;;;;;;15.13;76.26;98507.28;5013418;28;20026;-82
2023/10/03 02:36:59;;;;;;;22.65;11.40;;;;;;;14.87;76.85;98472.63;5011089;28;20556;-81
2023/10/03 02:39:29;;;;;;;22.05;11.18;;;;;;;15.09;76.47;98476.69;5012887;28;20084;-81
2023/10/03 02:41:54;;;;;;;23.45;11.75;;;;;;;15.10;76.49;98486.34;4995322;28;20037;-81
2023/10/03 02:44:19;;;;;;;24.15;11.98;;;;;;;15.21;76.40;98487.84;5013904;28;20033;-82
2023/10/03 02:46:45;;;;;;;24.63;12.27;;;;;;;14.80;76.76;98482.91;5009988;28;20102;-81
2023/10/03 02:49:11;;;;;;;22.08;11.88;;;;;;;15.04;76.64;98469.50;5011135;28;20030;-82
2023/10/03 02:51:37;;;;;;;20.95;11.40;;;;;;;15.11;76.20;98475.34;5005846;28;20030;-81
2023/10/03 02:54:02;;;;;;;20.85;11.13;;;;;;;14.60;76.98;98442.81;5012009;28;20025;-82
2023/10/03 02:56:28;;;;;;;25.55;11.00;;;;;;;14.73;76.88;98452.91;4980920;28;20402;-82
2023/10/03 02:58:53;;;;;;;24.45;10.98;;;;;;;14.92;76.99;98461.81;5015508;28;20390;-81
2023/10/03 03:01:21;;;;;;;27.40;12.90;;;;;;;14.46;77.82;98454.53;5006159;28;20084;-82
2023/10/03 03:03:46;;;;;;;22.05;10.18;;;;;;;14.55;77.14;98440.19;4996785;28;20037;-81
2023/10/03 03:06:14;;;;;;;25.67;11.10;;;;;;;14.48;78.05;98437.00;4994230;28;20402;-82
2023/10/03 03:08:39;;;;;;;18.55;10.75;;;;;;;14.81;76.91;98430.78;5009461;28;20054;-82
2023/10/03 03:11:05;;;;;;;17.77;10.13;;;;;;;14.84;76.90;98432.91;5012831;28;20541;-82
2023/10/03 03:13:37;;;;;;;23.20;11.75;;;;;;;14.69;77.44;98427.69;5013313;28;20029;-83
2023/10/03 03:16:04;;;;;;;22.23;10.63;;;;;;;14.72;77.13;98419.03;4995008;28;20104;-81
2023/10/03 03:18:40;;;;;;;23.65;11.05;;;;;;;14.85;76.29;98398.78;5010450;28;20026;-82
2023/10/03 03:21:13;;;;;;;22.65;11.02;;;;;;;14.85;76.88;98421.03;5019525;28;20033;-81
2023/10/03 03:23:42;;;;;;;22.15;10.85;;;;;;;14.65;76.85;98389.06;5013216;28;20037;-82
2023/10/03 03:28:38;;;;;;;22.30;11.00;;;;;;;14.74;76.54;98381.16;5008727;28;20026;-82
2023/10/03 03:31:09;;;;;;;29.40;12.15;;;;;;;14.69;76.90;98384.72;5008944;28;20013;-82
2023/10/03 03:33:35;;;;;;;23.10;11.80;;;;;;;14.82;76.55;98389.38;5011868;28;20069;-82
2023/10/03 03:36:01;;;;;;;18.95;10.55;;;;;;;14.70;76.83;98374.78;5005953;28;20386;-82
2023/10/03 03:38:27;;;;;;;28.23;10.93;;;;;;;14.81;76.43;98377.03;4990110;28;20076;-81
2023/10/03 03:40:59;;;;;;;21.75;10.70;;;;;;;14.74;76.96;98365.81;5012419;28;20033;-81
2023/10/03 03:43:25;;;;;;;25.60;11.75;;;;;;;14.82;76.65;98386.72;5002748;28;20435;-82
2023/10/03 03:45:51;;;;;;;22.73;11.60;;;;;;;14.71;77.26;98366.41;5011573;28;20026;-82
2023/10/03 03:48:19;;;;;;;31.27;13.65;;;;;;;14.28;79.10;98376.22;5014210;28;20026;-82
2023/10/03 03:50:44;;;;;;;21.75;11.63;;;;;;;14.38;78.33;98355.78;4996043;28;20444;-81
2023/10/03 03:53:10;;;;;;;23.40;10.65;;;;;;;14.72;77.15;98345.72;5012289;28;20029;-82
2023/10/03 03:55:37;;;;;;;22.45;11.65;;;;;;;14.86;77.06;98360.84;5011279;28;20040;-81
2023/10/03 03:58:12;;;;;;;21.90;11.18;;;;;;;14.89;76.74;98346.84;5012824;28;20033;-82
2023/10/03 04:00:38;;;;;;;28.17;13.38;;;;;;;14.36;78.13;98345.31;5004467;28;20113;-81
2023/10/03 04:03:13;;;;;;;19.80;11.13;;;;;;;14.67;77.86;98365.41;5009391;28;20026;-82
2023/10/03 04:05:39;;;;;;;24.40;12.18;;;;;;;14.70;77.76;98359.44;5011371;28;20065;-82
2023/10/03 04:08:05;;;;;;;25.55;13.05;;;;;;;14.13;80.10;98349.53;5010900;28;20064;-81
2023/10/03 04:10:30;;;;;;;29.75;12.90;;;;;;;14.31;80.93;98358.00;5010550;28;20033;-81
2023/10/03 04:12:56;;;;;;;25.55;13.57;;;;;;;14.49;79.07;98360.75;4994584;28;20034;-81
2023/10/03 04:15:23;;;;;;;38.80;16.67;;;;;;;14.30;80.69;98359.91;5008806;28;20381;-82
2023/10/03 04:17:49;;;;;;;28.38;13.40;;;;;;;14.19;79.61;98337.69;5010121;28;20730;-81
2023/10/03 04:22:47;;;;;;;33.30;14.35;;;;;;;14.50;79.54;98351.63;5011139;28;20126;-81
2023/10/03 04:25:15;;;;;;;22.90;11.77;;;;;;;14.57;78.93;98322.53;5009273;28;20593;-81
2023/10/03 04:27:41;;;;;;;22.17;12.10;;;;;;;14.23;81.33;98335.22;4988844;28;20022;-81
2023/10/03 04:30:13;;;;;;;27.58;12.57;;;;;;;14.99;77.93;98335.97;5002961;28;20392;-81
2023/10/03 04:32:39;;;;;;;24.20;12.40;;;;;;;15.00;77.05;98326.78;5009796;28;20734;-81
2023/10/03 04:35:11;;;;;;;24.30;12.15;;;;;;;14.86;77.50;98309.81;4992517;28;20083;-81
2023/10/03 04:37:38;;;;;;;27.23;13.85;;;;;;;14.95;77.90;98323.38;4979243;28;20063;-81
2023/10/03 04:40:06;;;;;;;25.70;14.70;;;;;;;14.98;76.94;98312.84;5011732;28;20056;-81
2023/10/03 04:42:32;;;;;;;27.38;12.43;;;;;;;14.84;77.75;98313.88;5011055;28;20017;-81
2023/10/03 04:44:57;;;;;;;27.27;12.95;;;;;;;15.31;76.32;98312.94;4991635;28;20040;-81
2023/10/03 04:47:22;;;;;;;23.35;12.48;;;;;;;15.36;75.92;98308.28;5006129;28;20040;-81
2023/10/03 04:49:48;;;;;;;25.55;13.10;;;;;;;15.05;77.00;98301.75;4988909;28;20136;-82
2023/10/03 04:52:13;;;;;;;24.15;11.88;;;;;;;15.09;76.53;98293.91;5009583;28;20040;-82
2023/10/03 04:54:39;;;;;;;28.58;13.50;;;;;;;14.95;77.06;98278.50;5008526;28;20042;-81
2023/10/03 04:57:05;;;;;;;34.22;14.25;;;;;;;14.97;76.71;98300.53;4993720;28;20429;-81
2023/10/03 04:59:30;;;;;;;30.17;13.80;;;;;;;15.18;76.32;98286.78;5010223;28;20056;-82
2023/10/03 05:01:55;;;;;;;27.05;13.38;;;;;;;15.35;75.40;98282.50;4993715;28;20030;-82
2023/10/03 05:04:21;;;;;;;26.63;12.80;;;;;;;15.20;75.58;98284.63;4993834;28;20037;-82
2023/10/03 05:06:47;;;;;;;26.42;13.82;;;;;;;15.15;76.62;98292.75;4992663;28;20052;-81
2023/10/03 05:09:13;;;;;;;29.20;12.88;;;;;;;15.22;76.04;98298.56;5009569;28;20021;-81
2023/10/03 05:11:38;;;;;;;29.20;14.02;;;;;;;15.00;77.53;98302.59;5008255;28;20493;-81
2023/10/03 05:14:04;;;;;;;25.83;13.20;;;;;;;14.80;78.16;98285.97;5005135;28;20038;-81
2023/10/03 05:16:29;;;;;;;28.38;14.13;;;;;;;14.18;80.88;98289.63;4974452;28;20034;-81
2023/10/03 05:18:55;;;;;;;26.67;13.95;;;;;;;14.33;80.42;98283.34;4988740;28;20117;-81
2023/10/03 05:21:21;;;;;;;28.80;14.23;;;;;;;14.68;78.22;98278.34;4994031;28;20033;-81
2023/10/03 05:23:46;;;;;;;34.95;15.82;;;;;;;14.22;81.39;98279.94;4994792;28;20046;-81
2023/10/03 05:26:19;;;;;;;31.95;15.40;;;;;;;14.36;79.27;98272.03;5004919;28;20026;-82
2023/10/03 05:28:44;;;;;;;28.98;14.75;;;;;;;14.49;79.30;98271.34;4993493;28;20022;-81
2023/10/03 05:31:13;;;;;;;28.00;13.88;;;;;;;14.50;79.21;98268.38;5012721;28;20029;-82
2023/10/03 05:33:38;;;;;;;31.63;14.75;;;;;;;14.80;77.72;98275.22;5011451;28;20041;-81
2023/10/03 05:36:04;;;;;;;29.13;14.65;;;;;;;14.96;77.74;98277.41;5008211;28;20029;-82
2023/10/03 05:38:29;;;;;;;29.23;13.63;;;;;;;14.90;77.60;98285.81;4991277;28;20037;-81
2023/10/03 05:40:55;;;;;;;25.67;13.02;;;;;;;15.00;77.11;98291.84;4991522;28;21669;-82
2023/10/03 05:43:20;;;;;;;29.45;14.40;;;;;;;14.97;77.40;98288.97;5013777;28;20053;-81
2023/10/03 05:45:49;;;;;;;28.52;14.27;;;;;;;14.87;77.79;98278.38;5012132;28;20025;-82
2023/10/03 05:48:15;;;;;;;33.47;14.90;;;;;;;14.12;81.26;98256.69;4978988;28;20037;-82
2023/10/03 05:50:41;;;;;;;34.35;16.70;;;;;;;13.99;83.26;98283.41;4991561;28;20405;-82
2023/10/03 05:53:07;;;;;;;28.48;13.55;;;;;;;14.51;79.04;98275.34;4992914;28;20108;-81
2023/10/03 05:55:32;;;;;;;29.45;13.52;;;;;;;14.67;78.17;98263.31;4977897;28;20149;-81
2023/10/03 05:57:57;;;;;;;40.33;16.45;;;;;;;14.00;82.76;98277.75;5013170;28;20087;-82
2023/10/03 06:00:23;;;;;;;28.60;14.05;;;;;;;14.70;78.34;98289.59;5007790;28;20740;-82
2023/10/03 06:02:50;;;;;;;34.47;15.30;;;;;;;14.64;78.88;98277.31;5014154;28;20482;-82
2023/10/03 06:05:16;;;;;;;28.38;13.85;;;;;;;15.11;77.70;98289.03;5008816;28;20073;-82
2023/10/03 06:07:42;;;;;;;28.20;13.43;;;;;;;14.85;77.81;98273.25;4995650;28;20026;-83
2023/10/03 06:10:11;;;;;;;29.10;14.77;;;;;;;15.12;77.05;98301.38;4997408;28;20025;-81
2023/10/03 06:12:38;;;;;;;27.80;14.18;;;;;;;15.03;77.15;98293.16;5008382;28;20022;-81
2023/10/03 06:15:04;;;;;;;27.17;13.70;;;;;;;14.89;78.09;98285.06;5009733;28;20026;-81
2023/10/03 06:17:33;;;;;;;31.65;16.85;;;;;;;14.50;82.25;98287.19;5011879;28;20053;-82
2023/10/03 06:19:59;;;;;;;28.58;14.57;;;;;;;14.68;79.86;98296.31;5011619;28;20080;-82
2023/10/03 06:22:24;;;;;;;38.75;17.15;;;;;;;14.46;83.63;98304.91;4993803;28;20049;-81
2023/10/03 06:24:50;;;;;;;30.42;15.80;;;;;;;14.68;80.77;98285.59;4990918;28;20487;-82
2023/10/03 06:27:17;;;;;;;32.60;16.70;;;;;;;14.17;86.39;98280.00;4982731;28;20107;-82
2023/10/03 06:29:43;;;;;;;34.28;14.50;;;;;;;14.48;81.71;98273.22;4980699;28;20084;-82
2023/10/03 06:32:08;;;;;;;25.52;13.95;;;;;;;14.51;81.31;98283.38;5014020;28;20505;-82
2023/10/03 06:34:34;;;;;;;39.08;17.83;;;;;;;14.38;83.99;98278.72;4993599;28;20072;-82
2023/10/03 06:37:00;;;;;;;39.33;18.05;;;;;;;14.35;86.72;98299.97;5008899;28;20382;-82
2023/10/03 06:39:26;;;;;;;35.88;15.65;;;;;;;14.40;85.18;98294.53;4997036;28;20141;-82
2023/10/03 06:41:55;;;;;;;31.70;16.27;;;;;;;14.17;87.34;98291.56;5012542;28;20109;-82
2023/10/03 06:44:21;;;;;;;33.10;15.70;;;;;;;14.31;86.92;98296.28;5010153;28;20038;-82
2023/10/03 06:46:46;;;;;;;30.92;15.48;;;;;;;14.33;84.75;98288.72;5007603;28;20026;-82
2023/10/03 06:49:12;;;;;;;36.13;17.42;;;;;;;14.28;89.13;98302.97;5008481;28;20040;-81
2023/10/03 06:51:38;;;;;;;37.83;18.08;;;;;;;14.19;89.51;98294.75;5009171;28;20492;-82
2023/10/03 06:54:04;;;;;;;33.17;15.10;;;;;;;14.41;86.65;98302.31;4980711;28;20027;-82
2023/10/03 06:56:32;;;;;;;30.58;15.65;;;;;;;14.38;88.22;98292.13;4990559;28;20178;-81
2023/10/03 06:58:59;;;;;;;29.95;15.25;;;;;;;14.35;88.26;98292.69;5010311;28;20021;-82
2023/10/03 07:01:24;;;;;;;35.40;16.35;;;;;;;14.43;89.08;98299.34;4988815;28;20022;-82
2023/10/03 07:03:52;;;;;;;35.42;15.63;;;;;;;14.49;88.32;98323.16;5014297;28;20030;-82
2023/10/03 07:06:18;;;;;;;35.15;15.90;;;;;;;14.57;88.77;98316.38;4980429;28;20034;-81
2023/10/03 07:08:43;;;;;;;35.13;15.38;;;;;;;14.60;89.37;98319.28;4997755;28;20046;-82
2023/10/03 07:11:12;;;;;;;30.75;16.23;;;;;;;14.65;90.01;98319.22;5016577;28;20044;-81
2023/10/03 07:13:38;;;;;;;29.67;15.10;;;;;;;14.83;87.90;98323.81;4995735;28;20397;-81
2023/10/03 07:16:03;;;;;;;34.63;17.08;;;;;;;14.97;87.64;98330.09;5012405;28;20041;-81
2023/10/03 07:18:29;;;;;;;30.70;14.88;;;;;;;15.06;86.57;98329.44;5010434;28;20030;-81
2023/10/03 07:20:55;;;;;;;30.02;14.50;;;;;;;15.37;80.97;98325.22;5011358;28;20038;-81
2023/10/03 07:23:21;;;;;;;30.23;14.23;;;;;;;15.50;81.58;98346.03;5010283;28;20131;-81
2023/10/03 07:25:48;;;;;;;29.20;14.80;;;;;;;15.66;80.52;98355.47;5001661;28;20030;-81
2023/10/03 07:28:14;;;;;;;28.90;15.10;;;;;;;15.61;82.35;98334.03;5013286;28;20045;-81
2023/10/03 07:30:41;;;;;;;28.33;13.20;;;;;;;15.70;80.45;98334.97;5004499;28;20066;-81
2023/10/03 07:33:08;;;;;;;25.83;13.85;;;;;;;15.88;81.40;98338.72;4991583;28;20038;-81
2023/10/03 07:35:37;;;;;;;26.13;13.13;;;;;;;15.91;81.01;98327.31;5002685;28;20125;-81
2023/10/03 07:38:03;;;;;;;24.17;12.93;;;;;;;16.12;79.30;98325.91;5007093;28;20030;-81
2023/10/03 07:40:28;;;;;;;27.80;12.23;;;;;;;16.27;79.20;98339.09;4998575;28;20038;-81
2023/10/03 07:42:53;;;;;;;26.33;13.50;;;;;;;16.33;80.75;98319.84;5004398;28;20490;-81
2023/10/03 07:45:19;;;;;;;24.98;12.60;;;;;;;16.31;78.24;98313.97;5006296;28;20796;-81
2023/10/03 07:47:45;;;;;;;25.00;12.75;;;;;;;16.53;78.75;98340.25;5001879;28;20065;-81
2023/10/03 07:50:13;;;;;;;25.80;11.75;;;;;;;16.63;78.24;98328.44;4986966;28;20124;-80
2023/10/03 07:52:39;;;;;;;24.13;12.13;;;;;;;16.67;77.21;98341.03;5005653;28;20555;-81
2023/10/03 07:55:05;;;;;;;26.92;12.55;;;;;;;16.67;76.92;98319.47;5003716;28;20034;-81
2023/10/03 07:57:30;;;;;;;25.88;13.73;;;;;;;16.78;76.82;98328.94;4987833;28;20069;-81
2023/10/03 07:59:56;;;;;;;24.80;12.20;;;;;;;16.78;76.59;98315.47;5005191;28;20043;-81
2023/10/03 08:02:29;;;;;;;25.95;12.82;;;;;;;16.88;76.39;98334.13;4975377;28;20037;-81
2023/10/03 08:05:00;;;;;;;29.20;14.10;;;;;;;16.83;76.76;98314.56;4993134;28;20040;-81
2023/10/03 08:07:25;;;;;;;24.92;12.38;;;;;;;16.96;75.97;98332.59;4976172;28;20485;-81
2023/10/03 08:09:51;;;;;;;23.75;12.50;;;;;;;16.99;76.59;98332.03;5000263;28;20057;-81
2023/10/03 08:12:23;;;;;;;25.88;11.68;;;;;;;16.94;76.28;98318.63;4991174;28;20037;-81
2023/10/03 08:14:53;;;;;;;26.55;12.73;;;;;;;16.94;75.81;98315.94;5006908;28;20461;-81
2023/10/03 08:17:20;;;;;;;25.58;11.68;;;;;;;17.06;75.43;98332.38;5008938;28;20033;-81
2023/10/03 08:19:48;;;;;;;20.67;11.80;;;;;;;17.09;75.63;98324.50;5010417;28;20053;-82
2023/10/03 08:22:14;;;;;;;20.70;12.13;;;;;;;17.20;75.31;98335.84;5010181;28;20110;-81
2023/10/03 08:24:43;;;;;;;25.00;13.68;;;;;;;17.25;75.31;98320.34;5026829;28;20081;-81
2023/10/03 08:27:18;;;;;;;22.58;12.35;;;;;;;17.23;74.88;98316.38;5010069;28;20041;-81
2023/10/03 08:29:57;;;;;;;21.40;12.20;;;;;;;17.35;74.91;98321.22;5005443;28;20034;-81
2023/10/03 08:32:27;;;;;;;22.35;11.25;;;;;;;17.19;75.00;98289.22;5005051;28;20017;-81
2023/10/03 08:34:52;;;;;;;20.90;11.93;;;;;;;17.26;75.34;98296.88;5013262;28;20104;-81
2023/10/03 08:37:21;;;;;;;21.42;12.07;;;;;;;17.31;75.46;98302.16;4991950;28;20121;-81
2023/10/03 08:39:51;;;;;;;20.35;11.45;;;;;;;17.41;75.44;98311.94;5004100;28;20041;-81
2023/10/03 08:42:20;;;;;;;23.27;11.43;;;;;;;17.53;74.45;98313.00;5008543;28;20029;-81
2023/10/03 08:44:53;;;;;;;21.65;11.70;;;;;;;17.61;74.49;98333.84;5004086;28;20421;-81
2023/10/03 08:47:31;;;;;;;16.83;10.70;;;;;;;17.67;74.30;98316.44;5007849;28;20066;-81
2023/10/03 08:50:11;;;;;;;21.17;11.20;;;;;;;17.78;74.03;98357.47;4991769;28;20567;-81
2023/10/03 08:52:46;;;;;;;22.17;12.13;;;;;;;17.71;74.59;98354.41;4995774;28;20033;-81
2023/10/03 08:55:14;;;;;;;18.08;10.90;;;;;;;17.73;74.35;98350.31;4997922;28;20430;-81
2023/10/03 08:57:40;;;;;;;21.77;11.90;;;;;;;17.68;74.27;98344.22;4999669;28;20133;-81
2023/10/03 09:00:09;;;;;;;17.08;10.93;;;;;;;17.59;74.29;98341.47;4988996;28;20543;-81
2023/10/03 09:02:45;;;;;;;23.95;11.90;;;;;;;17.59;74.50;98346.06;4998936;28;20034;-81
2023/10/03 09:05:19;;;;;;;22.40;11.63;;;;;;;17.65;74.50;98347.53;5011768;28;20038;-81
2023/10/03 09:07:45;;;;;;;20.20;10.77;;;;;;;17.58;74.50;98349.88;5004971;28;20095;-82
2023/10/03 09:10:22;;;;;;;21.15;10.88;;;;;;;17.61;74.36;98358.16;5003117;28;20030;-81
2023/10/03 09:12:51;;;;;;;22.77;11.80;;;;;;;17.50;75.17;98319.00;5000546;28;20515;-81
2023/10/03 09:15:17;;;;;;;19.40;12.25;;;;;;;17.64;75.01;98357.53;4991642;28;20398;-81
2023/10/03 09:17:49;;;;;;;16.75;10.25;;;;;;;17.63;75.31;98341.63;4991718;28;20060;-81
2023/10/03 09:20:22;;;;;;;23.50;12.18;;;;;;;17.61;74.65;98336.56;4977763;28;20026;-81
2023/10/03 09:22:48;;;;;;;17.15;10.95;;;;;;;17.62;74.55;98308.47;5002154;28;20030;-81
2023/10/03 09:25:16;;;;;;;20.42;11.23;;;;;;;17.71;74.61;98320.09;4997224;28;20030;-80
2023/10/03 09:27:42;;;;;;;22.77;13.27;;;;;;;17.70;74.66;98318.53;4988663;28;20033;-81
2023/10/03 09:30:09;;;;;;;26.92;12.20;;;;;;;17.82;74.40;98348.44;4977467;28;20477;-81
2023/10/03 09:32:39;;;;;;;21.27;12.40;;;;;;;17.83;75.06;98341.97;4976085;28;20489;-81
2023/10/03 09:35:09;;;;;;;18.80;11.77;;;;;;;17.91;74.63;98346.59;4978423;28;20026;-81
2023/10/03 09:37:35;;;;;;;21.02;11.15;;;;;;;18.04;74.30;98376.56;4992538;28;20042;-81
2023/10/03 09:40:01;;;;;;;21.52;11.40;;;;;;;18.04;74.10;98371.16;4993639;28;20136;-81
2023/10/03 09:42:30;;;;;;;20.67;11.35;;;;;;;18.08;73.95;98356.75;4995208;28;20492;-82
2023/10/03 09:44:59;;;;;;;22.65;11.85;;;;;;;18.17;74.31;98378.41;5001713;28;20030;-81
2023/10/03 09:47:31;;;;;;;23.48;11.73;;;;;;;18.24;73.95;98376.06;4990321;28;21362;-81
2023/10/03 09:50:06;;;;;;;20.63;11.55;;;;;;;18.26;73.93;98377.31;4990937;28;20036;-82
2023/10/03 09:52:33;;;;;;;17.30;11.45;;;;;;;18.27;74.02;98380.81;4975457;28;20045;-80
2023/10/03 09:55:02;;;;;;;26.10;13.75;;;;;;;18.25;74.08;98393.84;4992617;28;20510;-81
2023/10/03 09:57:29;;;;;;;24.45;11.70;;;;;;;18.23;73.98;98386.06;4988627;28;20433;-82
2023/10/03 09:59:56;;;;;;;19.42;11.55;;;;;;;18.20;74.12;98383.97;5000167;28;20029;-81
2023/10/03 10:02:36;;;;;;;26.33;12.80;;;;;;;18.26;74.20;98395.47;4983622;28;20061;-81
2023/10/03 10:05:19;;;;;;;22.85;11.32;;;;;;;18.27;74.64;98395.13;5004624;28;20065;-82
2023/10/03 10:08:17;;;;;;;27.20;11.77;;;;;;;18.26;74.53;98385.44;5003924;28;20041;-82
2023/10/03 10:11:02;;;;;;;22.88;12.57;;;;;;;18.34;74.12;98384.69;5003140;28;20048;-82
2023/10/03 10:13:34;;;;;;;25.55;11.95;;;;;;;18.37;74.14;98386.00;4990950;28;20466;-82
2023/10/03 10:16:13;;;;;;;25.17;12.93;;;;;;;18.37;74.14;98380.59;4994797;28;20030;-82
2023/10/03 10:18:45;;;;;;;26.27;12.90;;;;;;;18.42;74.03;98383.13;4991702;28;20073;-81
2023/10/03 10:21:24;;;;;;;25.80;14.05;;;;;;;18.29;73.93;98355.09;4988169;28;20033;-81
2023/10/03 10:24:20;;;;;;;20.15;11.60;;;;;;;18.55;74.02;98401.19;4994247;28;20033;-81
2023/10/03 10:26:52;;;;;;;23.05;12.00;;;;;;;18.55;73.94;98402.00;4989904;28;20041;-82
2023/10/03 10:29:20;;;;;;;20.05;11.63;;;;;;;18.48;74.00;98398.13;4996638;28;20045;-82
2023/10/03 10:31:49;;;;;;;21.98;13.20;;;;;;;18.50;74.32;98404.06;5007703;28;20038;-81
2023/10/03 10:34:21;;;;;;;22.65;12.52;;;;;;;18.48;74.05;98398.94;4991073;28;20051;-81
2023/10/03 10:37:10;;;;;;;23.98;12.85;;;;;;;18.48;74.36;98400.84;4989218;28;20029;-83
2023/10/03 10:39:54;;;;;;;25.15;12.23;;;;;;;18.70;74.15;98406.19;4988668;28;20029;-82
2023/10/03 10:42:25;;;;;;;22.05;11.50;;;;;;;18.65;74.14;98409.06;4995714;28;20060;-82
2023/10/03 10:45:15;;;;;;;21.48;11.70;;;;;;;18.73;73.96;98412.88;4996341;28;20124;-82
2023/10/03 10:47:55;;;;;;;26.67;12.63;;;;;;;18.66;73.96;98413.34;4993490;28;20018;-82
2023/10/03 10:50:27;;;;;;;18.55;11.75;;;;;;;18.62;74.04;98409.66;4997448;28;20049;-82
2023/10/03 10:52:57;;;;;;;24.80;12.85;;;;;;;18.60;73.94;98414.59;4997784;28;20054;-82
2023/10/03 10:55:25;;;;;;;24.38;12.45;;;;;;;18.70;74.28;98438.63;4996414;28;20080;-81
2023/10/03 10:58:07;;;;;;;23.83;12.45;;;;;;;18.61;73.95;98432.38;4997538;28;20089;-80
2023/10/03 11:00:33;;;;;;;22.23;12.85;;;;;;;18.58;74.93;98446.53;4983064;28;20030;-81
2023/10/03 11:03:02;;;;;;;24.02;12.73;;;;;;;18.58;74.86;98441.13;4997173;28;20125;-81
2023/10/03 11:05:45;;;;;;;25.40;13.23;;;;;;;18.60;76.28;98447.03;4998260;28;20050;-81
2023/10/03 11:08:10;;;;;;;21.70;12.35;;;;;;;18.64;74.41;98420.97;4994927;28;20022;-81
2023/10/03 11:10:52;;;;;;;21.88;12.55;;;;;;;18.67;74.81;98423.06;4978796;28;20056;-81
2023/10/03 11:13:18;;;;;;;25.90;13.02;;;;;;;18.78;74.30;98415.47;5008309;28;20030;-80
2023/10/03 11:15:51;;;;;;;19.52;13.63;;;;;;;19.01;74.49;98431.28;4967378;28;20506;-80
2023/10/03 11:18:31;;;;;;;24.45;12.50;;;;;;;19.11;73.67;98414.75;5003736;28;20079;-81
2023/10/03 11:20:58;;;;;;;20.42;12.57;;;;;;;19.16;73.80;98400.28;5005318;28;20029;-81
2023/10/03 11:23:23;;;;;;;19.00;12.27;;;;;;;19.04;73.71;98392.00;4981016;28;20034;-79
2023/10/03 11:26:00;;;;;;;22.35;11.60;;;;;;;19.23;74.92;98411.47;5008779;28;20072;-80
2023/10/03 11:28:29;;;;;;;17.98;11.40;;;;;;;19.25;73.73;98403.81;4994221;28;20105;-80
2023/10/03 11:31:05;;;;;;;21.55;12.65;;;;;;;19.17;73.53;98389.19;4993885;28;20037;-81
2023/10/03 11:33:41;;;;;;;22.42;13.07;;;;;;;19.16;74.21;98398.41;4978333;28;20062;-80